createdAt,value
2018-12-05T00:02:33.094Z,102601.41
2018-12-05T00:06:45.896Z,102599.22
2018-12-05T00:11:00.601Z,102589.67
2018-12-05T00:15:14.980Z,102590.00
2018-12-05T00:19:30.087Z,102592.63
2018-12-05T00:23:41.706Z,102590.52
2018-12-05T00:27:51.361Z,102583.94
2018-12-05T00:32:06.523Z,102562.88
2018-12-05T00:36:20.460Z,102548.30
2018-12-05T00:40:33.926Z,102554.45
2018-12-05T00:44:45.780Z,102553.55
2018-12-05T00:48:59.280Z,102556.08
2018-12-05T00:53:15.512Z,102562.04
2018-12-05T00:57:24.975Z,102569.30
2018-12-05T01:01:39.208Z,102562.55
2018-12-05T01:05:52.843Z,102573.74
2018-12-05T01:10:04.398Z,102581.09
2018-12-05T01:14:16.358Z,102575.55
2018-12-05T01:18:23.803Z,102567.77
2018-12-05T01:22:39.473Z,102565.25
2018-12-05T01:26:49.479Z,102568.71
2018-12-05T01:30:56.529Z,102571.25
2018-12-05T01:35:13.871Z,102574.31
2018-12-05T01:39:24.177Z,102574.34
2018-12-05T01:43:53.930Z,102577.05
2018-12-05T01:48:01.807Z,102574.06
2018-12-05T01:52:08.837Z,102563.28
2018-12-05T01:56:19.268Z,102561.98
2018-12-05T02:00:30.146Z,102564.59
2018-12-05T02:04:45.647Z,102560.16
2018-12-05T02:09:07.077Z,102551.20
2018-12-05T02:13:20.879Z,102553.67
2018-12-05T02:17:32.656Z,102550.70
2018-12-05T02:21:39.557Z,102554.76
2018-12-05T02:25:55.847Z,102544.47
2018-12-05T02:30:07.591Z,102549.28
2018-12-05T02:34:18.646Z,102536.69
2018-12-05T02:38:32.086Z,102542.18
2018-12-05T02:42:42.448Z,102546.48
2018-12-05T02:47:01.628Z,102544.45
2018-12-05T02:51:14.315Z,102548.37
2018-12-05T02:55:29.757Z,102534.98
2018-12-05T02:59:39.996Z,102536.34
2018-12-05T03:04:01.773Z,102519.06
2018-12-05T03:08:10.526Z,102509.05
2018-12-05T03:12:27.085Z,102518.50
2018-12-05T03:16:36.646Z,102521.44
2018-12-05T03:20:46.638Z,102518.35
2018-12-05T03:24:55.745Z,102521.48
2018-12-05T03:29:11.732Z,102525.38
2018-12-05T03:33:25.455Z,102518.70
2018-12-05T03:37:43.786Z,102518.55
2018-12-05T03:42:01.987Z,102512.84
2018-12-05T03:46:16.764Z,102502.28
2018-12-05T03:50:32.579Z,102498.88
2018-12-05T03:54:46.193Z,102498.08
2018-12-05T03:58:59.627Z,102497.61
2018-12-05T04:03:16.559Z,102499.31
2018-12-05T04:07:29.198Z,102509.84
2018-12-05T04:11:46.388Z,102512.41
2018-12-05T04:15:57.611Z,102520.94
2018-12-05T04:20:10.251Z,102520.36
2018-12-05T04:24:19.031Z,102513.44
2018-12-05T04:28:32.818Z,102511.77
2018-12-05T04:32:50.769Z,102508.28
2018-12-05T04:37:03.088Z,102501.42
2018-12-05T04:41:12.035Z,102504.02
2018-12-05T04:45:21.960Z,102501.45
2018-12-05T04:49:34.744Z,102493.83
2018-12-05T04:53:46.666Z,102483.00
2018-12-05T04:57:55.710Z,102468.41
2018-12-05T05:02:09.192Z,102462.03
2018-12-05T05:06:17.924Z,102477.53
2018-12-05T05:10:44.038Z,102472.28
2018-12-05T05:14:59.526Z,102465.80
2018-12-05T05:19:18.606Z,102471.42
2018-12-05T05:23:33.251Z,102474.83
2018-12-05T05:27:49.605Z,102473.94
2018-12-05T05:32:03.302Z,102477.34
2018-12-05T05:36:12.463Z,102479.91
2018-12-05T05:40:25.171Z,102488.45
2018-12-05T05:44:32.105Z,102486.66
2018-12-05T05:48:45.771Z,102488.83
2018-12-05T05:52:55.700Z,102484.96
2018-12-05T05:57:11.144Z,102479.91
2018-12-05T06:01:19.750Z,102478.26
2018-12-05T06:05:34.507Z,102467.83
2018-12-05T06:09:43.839Z,102473.02
2018-12-05T06:13:55.853Z,102472.96
2018-12-05T06:18:06.646Z,102476.34
2018-12-05T06:22:22.033Z,102466.40
2018-12-05T06:26:38.094Z,102462.99
2018-12-05T06:30:54.213Z,102459.09
2018-12-05T06:35:20.521Z,102462.98
2018-12-05T06:39:30.731Z,102458.31
2018-12-05T06:43:45.091Z,102457.63
2018-12-05T06:47:54.235Z,102462.84
2018-12-05T06:52:07.684Z,102461.52
2018-12-05T06:56:18.643Z,102466.31
2018-12-05T07:00:31.247Z,102467.65
2018-12-05T07:04:44.613Z,102459.77
2018-12-05T07:08:56.331Z,102460.23
2018-12-05T07:13:05.490Z,102454.23
2018-12-05T07:17:15.331Z,102449.84
2018-12-05T07:21:27.877Z,102436.09
2018-12-05T07:25:39.529Z,102433.45
2018-12-05T07:29:57.565Z,102436.02
2018-12-05T07:34:16.132Z,102442.98
2018-12-05T07:42:56.830Z,102443.86
2018-12-05T07:47:08.614Z,102430.78
2018-12-05T07:51:26.034Z,102430.78
2018-12-05T07:55:41.127Z,102424.81
2018-12-05T07:59:55.522Z,102421.86
2018-12-05T08:04:09.048Z,102424.52
2018-12-05T08:08:20.628Z,102415.94
2018-12-05T08:12:31.824Z,102415.45
2018-12-05T08:16:49.839Z,102420.72
2018-12-05T08:20:58.313Z,102420.32
2018-12-05T08:25:08.693Z,102416.87
2018-12-05T08:29:19.395Z,102416.56
2018-12-05T08:33:29.195Z,102415.23
2018-12-05T08:37:44.846Z,102406.17
2018-12-05T08:41:53.349Z,102404.00
2018-12-05T08:46:03.333Z,102398.91
2018-12-05T08:50:15.987Z,102394.18
2018-12-05T08:54:28.816Z,102381.66
2018-12-05T08:58:43.939Z,102382.92
2018-12-05T09:02:59.155Z,102373.56
2018-12-05T09:07:11.786Z,102362.83
2018-12-05T09:11:26.164Z,102370.31
2018-12-05T09:15:38.833Z,102373.80
2018-12-05T09:19:57.671Z,102370.25
2018-12-05T09:24:07.693Z,102361.64
2018-12-05T09:28:17.191Z,102345.23
2018-12-05T09:32:28.970Z,102360.41
2018-12-05T09:36:39.791Z,102332.69
2018-12-05T09:40:47.098Z,102332.69
2018-12-05T09:45:03.234Z,102335.33
2018-12-05T09:49:15.058Z,102335.78
2018-12-05T09:53:26.899Z,102328.89
2018-12-05T09:57:41.629Z,102320.70
2018-12-05T10:01:51.700Z,102321.58
2018-12-05T10:06:05.192Z,102315.08
2018-12-05T10:10:24.304Z,102315.06
2018-12-05T10:14:30.899Z,102312.01
2018-12-05T10:18:42.852Z,102311.11
2018-12-05T10:22:51.416Z,102305.38
2018-12-05T10:27:06.964Z,102295.34
2018-12-05T10:31:19.577Z,102281.83
2018-12-05T10:35:29.835Z,102274.09
2018-12-05T10:39:44.840Z,102267.63
2018-12-05T10:44:00.529Z,102248.55
2018-12-05T10:48:11.009Z,102242.85
2018-12-05T10:52:30.893Z,102232.87
2018-12-05T10:56:47.046Z,102232.02
2018-12-05T11:01:13.091Z,102227.30
2018-12-05T11:05:39.180Z,102220.21
2018-12-05T11:10:07.369Z,102206.33
2018-12-05T11:14:32.297Z,102200.28
2018-12-05T11:18:58.631Z,102198.46
2018-12-05T11:23:29.513Z,102191.52
2018-12-05T11:27:42.087Z,102173.77
2018-12-05T11:31:54.582Z,102160.72
2018-12-05T11:36:07.241Z,102154.59
2018-12-05T11:40:21.691Z,102159.84
2018-12-05T11:44:33.700Z,102151.54
2018-12-05T11:48:42.044Z,102165.55
2018-12-05T11:52:55.661Z,102168.20
2018-12-05T11:57:06.437Z,102157.72
2018-12-05T12:01:19.095Z,102149.92
2018-12-05T12:05:31.623Z,102139.01
2018-12-05T12:09:47.974Z,102140.34
2018-12-05T12:13:56.888Z,102135.56
2018-12-05T12:18:10.472Z,102126.33
2018-12-05T12:22:29.321Z,102117.54
2018-12-05T12:26:37.846Z,102107.14
2018-12-05T12:30:46.526Z,102097.94
2018-12-05T12:35:03.317Z,102099.61
2018-12-05T12:39:20.873Z,102090.39
2018-12-05T12:43:33.039Z,102085.04
2018-12-05T12:47:52.046Z,102084.68
2018-12-05T12:52:04.715Z,102075.19
2018-12-05T12:56:14.683Z,102073.88
2018-12-05T13:00:28.956Z,102055.17
2018-12-05T13:04:44.370Z,102043.92
2018-12-05T13:08:55.942Z,102047.75
2018-12-05T13:13:10.733Z,102028.91
2018-12-05T13:17:22.389Z,102008.50
2018-12-05T13:21:36.731Z,102003.42
2018-12-05T13:25:45.987Z,102003.38
2018-12-05T13:30:00.252Z,102001.67
2018-12-05T13:34:08.585Z,101987.33
2018-12-05T13:38:26.056Z,101973.53
2018-12-05T13:42:36.951Z,101967.11
2018-12-05T13:46:59.170Z,101959.16
2018-12-05T13:51:14.535Z,101948.68
2018-12-05T13:55:23.944Z,101937.35
2018-12-05T13:59:38.387Z,101928.77
2018-12-05T14:03:45.735Z,101929.16
2018-12-05T14:07:54.449Z,101922.70
2018-12-05T14:12:04.078Z,101923.20
2018-12-05T14:16:24.742Z,101909.72
2018-12-05T14:20:41.642Z,101904.50
2018-12-05T14:24:55.108Z,101903.59
2018-12-05T14:33:30.717Z,101886.80
2018-12-05T14:37:47.594Z,101882.38
2018-12-05T14:42:00.342Z,101875.91
2018-12-05T14:46:12.662Z,101869.06
2018-12-05T14:50:24.350Z,101866.44
2018-12-05T14:54:37.926Z,101857.77
2018-12-05T14:58:55.037Z,101855.66
2018-12-05T15:03:04.367Z,101842.22
2018-12-05T15:07:15.076Z,101837.02
2018-12-05T15:11:26.749Z,101829.64
2018-12-05T15:15:34.236Z,101831.81
2018-12-05T15:19:46.885Z,101818.77
2018-12-05T15:24:02.209Z,101818.38
2018-12-05T15:28:16.969Z,101814.05
2018-12-05T15:32:27.883Z,101805.38
2018-12-05T15:36:45.382Z,101799.72
2018-12-05T15:40:58.023Z,101788.48
2018-12-05T15:45:06.405Z,101792.81
2018-12-05T15:49:16.287Z,101794.62
2018-12-05T15:53:26.159Z,101791.16
2018-12-05T15:57:35.181Z,101787.24
2018-12-05T16:01:44.526Z,101777.62
2018-12-05T16:05:54.404Z,101759.03
2018-12-05T16:10:05.103Z,101741.25
2018-12-05T16:14:16.842Z,101728.68
2018-12-05T16:18:28.454Z,101719.14
2018-12-05T16:22:39.243Z,101713.89
2018-12-05T16:26:48.190Z,101714.39
2018-12-05T16:30:58.949Z,101698.70
2018-12-05T16:35:16.165Z,101687.36
2018-12-05T16:39:29.381Z,101675.17
2018-12-05T16:43:38.377Z,101677.72
2018-12-05T16:47:46.605Z,101673.82
2018-12-05T16:51:53.193Z,101656.38
2018-12-05T16:56:04.121Z,101665.01
2018-12-05T17:00:20.069Z,101656.29
2018-12-05T17:04:29.070Z,101655.89
2018-12-05T17:08:47.951Z,101656.73
2018-12-05T17:12:57.954Z,101640.19
2018-12-05T17:17:08.005Z,101621.88
2018-12-05T17:21:23.278Z,101621.01
2018-12-05T17:25:31.970Z,101619.73
2018-12-05T17:29:42.705Z,101614.48
2018-12-05T17:33:58.122Z,101605.78
2018-12-05T17:38:13.502Z,101597.94
2018-12-05T17:42:27.559Z,101602.30
2018-12-05T17:46:37.617Z,101558.78
2018-12-05T17:50:48.318Z,101565.36
2018-12-05T17:55:05.797Z,101577.55
2018-12-05T17:59:16.711Z,101570.19
2018-12-05T18:03:31.948Z,101586.69
2018-12-05T18:07:49.034Z,101577.88
2018-12-05T18:11:58.218Z,101583.98
2018-12-05T18:16:13.540Z,101576.57
2018-12-05T18:20:26.156Z,101556.17
2018-12-05T18:24:38.693Z,101548.33
2018-12-05T18:28:49.491Z,101541.28
2018-12-05T18:33:04.329Z,101532.59
2018-12-05T18:37:17.734Z,101524.77
2018-12-05T18:41:30.604Z,101508.96
2018-12-05T18:45:42.469Z,101507.19
2018-12-05T18:49:54.134Z,101502.44
2018-12-05T18:54:10.322Z,101502.34
2018-12-05T18:58:18.949Z,101499.27
2018-12-05T19:02:38.161Z,101497.45
2018-12-05T19:06:55.335Z,101501.87
2018-12-05T19:11:12.462Z,101496.22
2018-12-05T19:15:24.135Z,101492.75
2018-12-05T19:19:38.628Z,101483.98
2018-12-05T19:23:53.199Z,101483.14
2018-12-05T19:28:09.422Z,101471.17
2018-12-05T19:32:20.391Z,101475.98
2018-12-05T19:36:34.030Z,101465.38
2018-12-05T19:40:44.967Z,101458.94
2018-12-05T19:44:57.347Z,101462.30
2018-12-05T19:49:05.998Z,101459.32
2018-12-05T19:53:18.121Z,101452.80
2018-12-05T19:57:26.129Z,101448.89
2018-12-05T20:01:38.852Z,101444.37
2018-12-05T20:05:56.029Z,101435.26
2018-12-05T20:10:03.527Z,101434.86
2018-12-05T20:14:15.654Z,101421.45
2018-12-05T20:18:29.353Z,101413.47
2018-12-05T20:22:41.769Z,101410.18
2018-12-05T20:26:54.119Z,101414.47
2018-12-05T20:31:01.798Z,101419.59
2018-12-05T20:35:19.369Z,101414.30
2018-12-05T20:39:28.440Z,101413.08
2018-12-05T20:43:42.312Z,101414.78
2018-12-05T20:47:59.186Z,101415.92
2018-12-05T20:52:10.083Z,101409.52
2018-12-05T20:56:27.146Z,101404.77
2018-12-05T21:00:38.091Z,101409.14
2018-12-05T21:04:51.013Z,101407.66
2018-12-05T21:09:06.375Z,101408.85
2018-12-05T21:13:20.232Z,101407.17
2018-12-05T21:17:30.164Z,101401.85
2018-12-05T21:21:46.283Z,101394.05
2018-12-05T21:26:02.698Z,101391.02
2018-12-05T21:30:15.697Z,101381.45
2018-12-05T21:34:27.632Z,101373.61
2018-12-05T21:38:41.381Z,101374.80
2018-12-05T21:42:53.149Z,101363.40
2018-12-05T21:47:05.905Z,101362.95
2018-12-05T21:51:15.028Z,101348.61
2018-12-05T21:55:26.449Z,101350.80
2018-12-05T21:59:45.422Z,101349.44
2018-12-05T22:03:55.663Z,101345.13
2018-12-05T22:08:12.009Z,101338.13
2018-12-05T22:12:23.783Z,101332.81
2018-12-05T22:16:34.994Z,101342.44
2018-12-05T22:21:44.102Z,101339.77
2018-12-05T22:25:50.319Z,101347.45
2018-12-05T22:30:00.275Z,101338.25
2018-12-05T22:34:12.953Z,101339.48
2018-12-05T22:38:26.417Z,101335.64
2018-12-05T22:42:35.334Z,101329.94
2018-12-05T22:46:47.909Z,101332.95
2018-12-05T22:51:03.301Z,101318.40
2018-12-05T22:55:15.378Z,101318.40
2018-12-05T22:59:35.694Z,101318.40
2018-12-05T23:03:47.819Z,101304.20
2018-12-05T23:08:00.357Z,101312.38
2018-12-05T23:12:15.794Z,101302.36
2018-12-05T23:16:31.112Z,101302.36
2018-12-05T23:20:44.609Z,101303.80
2018-12-05T23:24:56.970Z,101305.13
2018-12-05T23:29:02.787Z,101298.83
2018-12-05T23:33:12.137Z,101295.00
2018-12-05T23:37:24.763Z,101296.17
2018-12-05T23:41:38.536Z,101288.97
2018-12-05T23:45:56.806Z,101286.91
2018-12-05T23:50:07.619Z,101284.89
2018-12-05T23:54:17.611Z,101280.27
2018-12-05T23:58:32.012Z,101272.53
